createdAt,value
2022-10-29T00:00:17.331Z,88.50
2022-10-29T00:02:07.904Z,88.60
2022-10-29T00:03:58.488Z,88.60
2022-10-29T00:05:59.439Z,89.20
2022-10-29T00:07:50.438Z,89.10
2022-10-29T00:09:40.886Z,88.80
2022-10-29T00:11:33.775Z,88.80
2022-10-29T00:13:24.021Z,88.70
2022-10-29T00:15:14.578Z,88.40
2022-10-29T00:17:05.162Z,89.10
2022-10-29T00:18:56.329Z,89.10
2022-10-29T00:20:46.753Z,89.30
2022-10-29T00:22:37.296Z,88.80
2022-10-29T00:24:27.714Z,88.80
2022-10-29T00:26:19.840Z,88.40
2022-10-29T00:28:11.311Z,88.40
2022-10-29T00:30:01.704Z,88.20
2022-10-29T00:31:52.618Z,88.40
2022-10-29T00:33:43.659Z,88.20
2022-10-29T00:35:34.040Z,88.30
2022-10-29T00:37:24.387Z,88.20
2022-10-29T00:39:15.835Z,88.90
2022-10-29T00:41:07.779Z,88.80
2022-10-29T00:43:13.564Z,88.60
2022-10-29T00:45:04.520Z,89.00
2022-10-29T00:47:02.077Z,89.00
2022-10-29T00:48:54.354Z,88.90
2022-10-29T00:50:46.370Z,89.10
2022-10-29T00:52:39.239Z,89.30
2022-10-29T00:54:30.952Z,89.40
2022-10-29T00:56:22.376Z,89.30
2022-10-29T00:58:14.572Z,89.30
2022-10-29T01:00:05.712Z,89.40
2022-10-29T01:01:56.486Z,89.10
2022-10-29T01:03:47.402Z,89.00
2022-10-29T01:05:37.982Z,88.30
2022-10-29T01:07:29.245Z,88.90
2022-10-29T01:09:19.427Z,88.90
2022-10-29T01:11:19.134Z,88.80
2022-10-29T01:13:21.465Z,89.10
2022-10-29T01:15:13.526Z,89.20
2022-10-29T01:17:09.614Z,89.90
2022-10-29T01:19:05.170Z,89.90
2022-10-29T01:21:17.025Z,89.90
2022-10-29T01:23:20.389Z,89.90
2022-10-29T01:25:32.364Z,89.90
2022-10-29T01:27:43.836Z,89.90
2022-10-29T01:29:50.990Z,89.90
2022-10-29T01:31:45.855Z,89.90
2022-10-29T01:33:40.308Z,89.90
2022-10-29T01:35:36.867Z,89.90
2022-10-29T01:37:32.106Z,89.90
2022-10-29T01:39:30.200Z,89.90
2022-10-29T01:41:23.742Z,89.90
2022-10-29T01:43:17.913Z,89.90
2022-10-29T01:45:13.729Z,89.90
2022-10-29T01:47:08.014Z,89.90
2022-10-29T01:49:03.999Z,89.90
2022-10-29T01:50:57.056Z,89.90
2022-10-29T01:52:48.902Z,89.90
2022-10-29T01:54:41.273Z,89.70
2022-10-29T01:56:31.934Z,89.90
2022-10-29T01:58:23.832Z,89.90
2022-10-29T02:00:16.371Z,89.70
2022-10-29T02:02:09.034Z,89.90
2022-10-29T02:04:06.802Z,89.90
2022-10-29T02:06:02.623Z,89.90
2022-10-29T02:07:57.024Z,89.90
2022-10-29T02:09:54.589Z,89.90
2022-10-29T02:11:50.687Z,89.90
2022-10-29T02:13:46.217Z,89.90
2022-10-29T02:15:38.800Z,89.90
2022-10-29T02:17:32.169Z,89.90
2022-10-29T02:19:22.831Z,89.90
2022-10-29T02:21:15.486Z,89.90
2022-10-29T02:23:06.233Z,89.90
2022-10-29T02:24:56.804Z,89.90
2022-10-29T02:26:47.082Z,89.90
2022-10-29T02:28:37.972Z,89.90
2022-10-29T02:30:28.559Z,89.30
2022-10-29T02:32:18.915Z,89.40
2022-10-29T02:34:10.991Z,89.60
2022-10-29T02:36:01.332Z,89.90
2022-10-29T02:37:51.569Z,89.90
2022-10-29T02:39:41.999Z,89.90
2022-10-29T02:41:32.215Z,89.90
2022-10-29T02:43:22.514Z,89.90
2022-10-29T02:45:12.734Z,89.90
2022-10-29T02:47:03.138Z,89.90
2022-10-29T02:48:53.390Z,89.90
2022-10-29T02:50:45.053Z,89.90
2022-10-29T02:52:35.654Z,89.90
2022-10-29T02:54:26.565Z,89.90
2022-10-29T02:56:16.937Z,89.90
2022-10-29T02:58:07.275Z,89.90
2022-10-29T02:59:57.643Z,89.90
2022-10-29T03:01:47.970Z,89.90
2022-10-29T03:03:38.357Z,89.90
2022-10-29T03:05:28.966Z,89.90
2022-10-29T03:07:20.946Z,89.90
2022-10-29T03:09:11.452Z,89.90
2022-10-29T03:11:01.803Z,89.90
2022-10-29T03:12:52.153Z,89.90
2022-10-29T03:14:42.378Z,89.90
2022-10-29T03:16:32.801Z,89.90
2022-10-29T03:18:23.218Z,89.90
2022-10-29T03:20:13.812Z,89.90
2022-10-29T03:22:04.106Z,89.90
2022-10-29T03:23:55.926Z,89.90
2022-10-29T03:25:54.568Z,89.90
2022-10-29T03:27:46.545Z,89.90
2022-10-29T03:29:37.047Z,89.90
2022-10-29T03:31:27.292Z,89.90
2022-10-29T03:33:17.594Z,89.90
2022-10-29T03:35:08.810Z,89.90
2022-10-29T03:36:59.447Z,89.90
2022-10-29T03:38:49.763Z,89.90
2022-10-29T03:40:43.174Z,89.90
2022-10-29T03:42:33.954Z,89.90
2022-10-29T03:44:24.285Z,89.90
2022-10-29T03:46:14.518Z,89.90
2022-10-29T03:48:05.244Z,89.90
2022-10-29T03:49:56.005Z,89.90
2022-10-29T03:51:46.291Z,89.90
2022-10-29T03:53:37.308Z,89.90
2022-10-29T03:55:27.643Z,89.90
2022-10-29T03:57:19.883Z,89.90
2022-10-29T04:01:07.059Z,89.90
2022-10-29T04:02:58.120Z,89.90
2022-10-29T04:04:49.074Z,89.90
2022-10-29T04:06:39.519Z,89.90
2022-10-29T04:08:29.868Z,89.90
2022-10-29T04:10:20.273Z,89.90
2022-10-29T04:12:10.904Z,89.90
2022-10-29T04:14:02.670Z,89.90
2022-10-29T04:15:54.215Z,89.90
2022-10-29T04:17:44.486Z,89.90
2022-10-29T04:19:35.136Z,89.90
2022-10-29T04:27:37.468Z,89.90
2022-10-29T04:30:17.488Z,89.90
2022-10-29T04:32:07.998Z,89.90
2022-10-29T04:33:58.278Z,89.70
2022-10-29T04:35:52.102Z,89.70
2022-10-29T04:37:42.347Z,89.90
2022-10-29T04:39:32.874Z,89.90
2022-10-29T04:41:23.265Z,89.60
2022-10-29T04:43:13.911Z,89.50
2022-10-29T04:45:05.907Z,89.70
2022-10-29T04:46:57.791Z,89.90
2022-10-29T04:48:48.096Z,89.90
2022-10-29T04:50:38.616Z,89.90
2022-10-29T04:52:29.253Z,89.90
2022-10-29T04:54:19.748Z,89.90
2022-10-29T04:56:10.078Z,89.90
2022-10-29T04:58:00.321Z,89.90
2022-10-29T04:59:50.935Z,89.90
2022-10-29T05:01:41.210Z,89.90
2022-10-29T05:03:33.311Z,89.90
2022-10-29T05:05:23.827Z,89.90
2022-10-29T05:07:14.084Z,89.90
2022-10-29T05:09:04.617Z,89.90
2022-10-29T05:10:55.113Z,89.90
2022-10-29T05:12:45.418Z,89.90
2022-10-29T05:14:37.737Z,89.90
2022-10-29T05:16:27.999Z,89.90
2022-10-29T05:18:18.259Z,89.90
2022-10-29T05:20:11.005Z,89.90
2022-10-29T05:22:01.758Z,89.90
2022-10-29T05:23:52.114Z,89.90
2022-10-29T05:25:42.848Z,89.90
2022-10-29T05:27:33.129Z,89.90
2022-10-29T05:29:23.442Z,89.90
2022-10-29T05:31:13.903Z,89.90
2022-10-29T05:33:06.352Z,89.80
2022-10-29T05:34:56.718Z,89.60
2022-10-29T05:36:48.354Z,89.60
2022-10-29T05:38:38.545Z,89.90
2022-10-29T05:40:29.089Z,89.90
2022-10-29T05:42:19.431Z,89.90
2022-10-29T05:44:09.788Z,89.90
2022-10-29T05:46:02.718Z,89.90
2022-10-29T05:47:56.002Z,89.90
2022-10-29T05:49:46.442Z,89.90
2022-10-29T05:51:36.979Z,89.90
2022-10-29T05:53:28.550Z,89.90
2022-10-29T05:55:18.917Z,89.70
2022-10-29T05:57:09.326Z,89.90
2022-10-29T05:58:59.917Z,89.90
2022-10-29T06:00:51.581Z,89.90
2022-10-29T06:02:43.438Z,89.90
2022-10-29T06:04:34.484Z,89.90
2022-10-29T06:06:24.697Z,89.90
2022-10-29T06:08:15.094Z,89.90
2022-10-29T06:10:08.069Z,89.90
2022-10-29T06:11:58.301Z,89.90
2022-10-29T06:13:48.835Z,89.90
2022-10-29T06:15:39.614Z,89.90
2022-10-29T06:17:30.086Z,89.90
2022-10-29T06:19:20.485Z,89.90
2022-10-29T06:21:11.170Z,89.90
2022-10-29T06:23:01.783Z,89.90
2022-10-29T06:24:52.377Z,89.90
2022-10-29T06:26:44.391Z,89.90
2022-10-29T06:28:35.093Z,89.90
2022-10-29T06:30:25.722Z,89.90
2022-10-29T06:32:16.339Z,89.90
2022-10-29T06:34:06.656Z,89.90
2022-10-29T06:35:58.698Z,89.90
2022-10-29T06:37:49.127Z,89.90
2022-10-29T06:39:39.451Z,89.90
2022-10-29T06:41:29.628Z,89.90
2022-10-29T06:43:21.334Z,89.90
2022-10-29T06:45:12.099Z,89.90
2022-10-29T06:47:02.561Z,89.90
2022-10-29T06:48:53.115Z,89.90
2022-10-29T06:50:43.498Z,89.90
2022-10-29T06:52:33.859Z,89.90
2022-10-29T06:54:24.120Z,89.90
2022-10-29T06:56:14.451Z,89.90
2022-10-29T06:58:08.876Z,89.90
2022-10-29T07:00:05.605Z,89.90
2022-10-29T07:01:59.084Z,89.90
2022-10-29T07:03:50.154Z,89.90
2022-10-29T07:05:41.217Z,89.90
2022-10-29T07:07:31.654Z,89.90
2022-10-29T07:09:22.222Z,89.90
2022-10-29T07:11:12.688Z,89.90
2022-10-29T07:13:03.492Z,89.90
2022-10-29T07:14:53.997Z,89.90
2022-10-29T07:16:45.655Z,89.90
2022-10-29T07:18:35.940Z,89.90
2022-10-29T07:20:26.574Z,89.90
2022-10-29T07:22:17.026Z,89.90
2022-10-29T07:24:08.047Z,89.90
2022-10-29T07:25:58.697Z,89.90
2022-10-29T07:27:50.164Z,89.90
2022-10-29T07:29:40.559Z,89.90
2022-10-29T07:31:31.371Z,89.90
2022-10-29T07:33:22.970Z,89.90
2022-10-29T07:35:13.376Z,89.90
2022-10-29T07:37:03.662Z,89.90
2022-10-29T07:38:53.891Z,89.90
2022-10-29T07:40:47.448Z,89.90
2022-10-29T07:42:38.012Z,89.90
2022-10-29T07:44:28.455Z,89.90
2022-10-29T07:46:18.945Z,89.90
2022-10-29T07:48:09.791Z,89.90
2022-10-29T07:50:01.801Z,89.90
2022-10-29T07:51:52.010Z,89.90
2022-10-29T07:53:42.529Z,89.90
2022-10-29T07:55:33.066Z,89.90
2022-10-29T07:57:23.371Z,89.90
2022-10-29T07:59:13.662Z,89.90
2022-10-29T08:01:03.961Z,89.90
2022-10-29T08:02:54.851Z,89.90
2022-10-29T08:04:45.428Z,89.90
2022-10-29T08:06:37.092Z,89.90
2022-10-29T08:08:27.829Z,89.90
2022-10-29T08:10:18.226Z,89.90
2022-10-29T08:12:09.739Z,89.90
2022-10-29T08:14:00.048Z,89.90
2022-10-29T08:15:50.250Z,89.90
2022-10-29T08:17:40.931Z,89.90
2022-10-29T08:19:31.048Z,89.90
2022-10-29T08:21:21.824Z,89.90
2022-10-29T08:23:14.085Z,89.90
2022-10-29T08:25:05.699Z,89.90
2022-10-29T08:26:56.426Z,89.90
2022-10-29T08:28:47.094Z,89.90
2022-10-29T08:30:37.812Z,89.90
2022-10-29T08:32:28.330Z,89.90
2022-10-29T08:34:18.661Z,89.90
2022-10-29T08:36:09.057Z,89.90
2022-10-29T08:37:59.898Z,89.90
2022-10-29T08:39:51.738Z,89.90
2022-10-29T08:41:45.394Z,89.80
2022-10-29T08:43:59.201Z,89.80
2022-10-29T08:45:51.271Z,89.90
2022-10-29T08:47:51.805Z,89.90
2022-10-29T08:49:45.938Z,89.90
2022-10-29T08:51:37.606Z,89.90
2022-10-29T08:53:34.787Z,89.90
2022-10-29T08:55:33.660Z,89.80
2022-10-29T08:57:25.391Z,89.90
2022-10-29T08:59:17.495Z,89.90
2022-10-29T09:01:11.159Z,89.50
2022-10-29T09:03:01.832Z,89.20
2022-10-29T09:04:52.080Z,89.10
2022-10-29T09:06:47.257Z,89.10
2022-10-29T09:08:44.569Z,89.30
2022-10-29T09:10:41.496Z,89.10
2022-10-29T09:12:44.288Z,89.20
2022-10-29T09:14:49.265Z,89.20
2022-10-29T09:16:44.108Z,89.00
2022-10-29T09:18:46.451Z,89.10
2022-10-29T09:20:40.459Z,89.10
2022-10-29T09:22:37.300Z,88.90
2022-10-29T09:24:33.295Z,89.00
2022-10-29T09:26:30.831Z,89.20
2022-10-29T09:28:28.200Z,89.20
2022-10-29T09:30:19.973Z,89.30
2022-10-29T09:32:13.201Z,88.70
2022-10-29T09:34:12.312Z,88.70
2022-10-29T09:36:05.261Z,88.60
2022-10-29T09:38:00.469Z,88.40
2022-10-29T09:39:51.275Z,88.60
2022-10-29T09:41:44.634Z,88.50
2022-10-29T09:43:40.896Z,88.70
2022-10-29T09:45:41.158Z,88.50
2022-10-29T09:47:39.043Z,88.30
2022-10-29T09:49:39.155Z,88.40
2022-10-29T09:51:37.350Z,88.40
2022-10-29T09:53:27.999Z,88.40
2022-10-29T09:55:21.640Z,88.30
2022-10-29T09:57:19.127Z,88.20
2022-10-29T09:59:17.528Z,88.20
2022-10-29T10:01:08.189Z,87.90
2022-10-29T10:03:03.260Z,87.70
2022-10-29T10:04:56.492Z,87.50
2022-10-29T10:07:05.974Z,87.40
2022-10-29T10:08:59.689Z,86.90
2022-10-29T10:10:52.025Z,86.60
2022-10-29T10:12:47.268Z,86.30
2022-10-29T10:14:37.603Z,85.80
2022-10-29T10:16:29.616Z,85.50
2022-10-29T10:18:22.026Z,85.30
2022-10-29T10:20:35.864Z,85.00
2022-10-29T10:22:26.467Z,85.10
2022-10-29T10:24:29.696Z,85.40
2022-10-29T10:26:32.387Z,85.00
2022-10-29T10:28:24.961Z,85.00
2022-10-29T10:30:15.701Z,85.60
2022-10-29T10:32:15.606Z,85.30
2022-10-29T10:34:14.353Z,84.90
2022-10-29T10:36:06.885Z,84.60
2022-10-29T10:37:57.961Z,84.10
2022-10-29T10:39:51.541Z,83.90
2022-10-29T10:41:42.691Z,83.60
2022-10-29T10:43:34.827Z,83.60
2022-10-29T10:45:27.667Z,83.70
2022-10-29T10:47:20.147Z,82.70
2022-10-29T10:49:15.057Z,81.70
2022-10-29T10:51:10.390Z,81.70
2022-10-29T10:53:04.489Z,81.60
2022-10-29T10:54:57.923Z,81.40
2022-10-29T10:56:53.706Z,81.00
2022-10-29T10:58:50.150Z,81.00
2022-10-29T11:00:43.301Z,81.00
2022-10-29T11:02:39.461Z,80.70
2022-10-29T11:04:33.228Z,80.80
2022-10-29T11:06:26.997Z,81.00
2022-10-29T11:08:19.827Z,80.70
2022-10-29T11:10:12.531Z,80.70
2022-10-29T11:12:04.202Z,80.20
2022-10-29T11:14:00.309Z,80.40
2022-10-29T11:15:54.193Z,80.30
2022-10-29T11:17:51.449Z,79.60
2022-10-29T11:19:48.369Z,79.60
2022-10-29T11:21:42.683Z,79.50
2022-10-29T11:23:42.411Z,79.20
2022-10-29T11:25:39.849Z,79.00
2022-10-29T11:27:36.524Z,78.20
2022-10-29T11:29:38.614Z,77.50
2022-10-29T11:31:36.410Z,78.60
2022-10-29T11:33:33.495Z,78.10
2022-10-29T11:35:38.831Z,78.90
2022-10-29T11:37:33.842Z,79.20
2022-10-29T11:39:28.278Z,77.40
2022-10-29T11:41:23.716Z,77.70
2022-10-29T11:43:17.751Z,77.40
2022-10-29T11:45:12.037Z,77.00
2022-10-29T11:47:12.421Z,76.20
2022-10-29T11:49:14.121Z,75.50
2022-10-29T11:51:11.736Z,75.30
2022-10-29T11:53:14.031Z,75.50
2022-10-29T11:55:24.958Z,74.00
2022-10-29T11:57:20.232Z,74.40
2022-10-29T11:59:16.597Z,73.80
2022-10-29T12:01:14.170Z,73.10
2022-10-29T12:03:21.881Z,72.00
2022-10-29T12:05:19.280Z,72.90
2022-10-29T12:07:18.354Z,71.40
2022-10-29T12:09:25.958Z,71.00
2022-10-29T12:11:22.723Z,70.80
2022-10-29T12:13:21.449Z,71.30
2022-10-29T12:15:20.165Z,70.60
2022-10-29T12:17:14.977Z,71.10
2022-10-29T12:19:15.385Z,70.90
2022-10-29T12:21:12.122Z,70.40
2022-10-29T12:23:14.550Z,69.70
2022-10-29T12:25:19.547Z,70.20
2022-10-29T12:27:13.036Z,69.00
2022-10-29T12:29:08.968Z,69.30
2022-10-29T12:31:08.296Z,70.40
2022-10-29T12:33:06.479Z,69.00
2022-10-29T12:35:00.262Z,68.40
2022-10-29T12:36:57.566Z,67.80
2022-10-29T12:38:50.559Z,69.30
2022-10-29T12:40:43.655Z,67.70
2022-10-29T12:42:34.333Z,67.90
2022-10-29T12:44:27.850Z,69.20
2022-10-29T12:46:24.599Z,68.10
2022-10-29T12:48:19.314Z,68.40
2022-10-29T12:50:21.865Z,69.10
2022-10-29T12:52:17.204Z,69.70
2022-10-29T12:54:16.503Z,69.50
2022-10-29T12:56:07.768Z,69.20
2022-10-29T12:57:58.312Z,70.20
2022-10-29T12:59:48.822Z,70.70
2022-10-29T13:04:01.507Z,69.70
2022-10-29T13:05:51.948Z,69.70
2022-10-29T13:08:31.038Z,69.30
2022-10-29T13:10:39.667Z,70.40
2022-10-29T13:12:56.770Z,71.20
2022-10-29T13:14:52.207Z,70.20
2022-10-29T13:16:42.984Z,69.50
2022-10-29T13:18:46.307Z,69.10
2022-10-29T13:20:40.003Z,70.50
2022-10-29T13:22:49.890Z,69.60
2022-10-29T13:24:40.132Z,69.80
2022-10-29T13:26:57.399Z,68.40
2022-10-29T13:28:51.801Z,68.70
2022-10-29T13:30:43.482Z,69.80
2022-10-29T13:32:36.148Z,69.80
2022-10-29T13:34:55.726Z,70.20
2022-10-29T13:36:47.531Z,70.50
2022-10-29T13:38:52.043Z,70.20
2022-10-29T13:41:12.909Z,70.30
2022-10-29T13:43:05.660Z,71.60
2022-10-29T13:44:56.385Z,71.30
2022-10-29T13:46:49.659Z,71.70
2022-10-29T13:48:40.783Z,71.10
2022-10-29T13:50:31.307Z,70.60
2022-10-29T13:52:23.822Z,71.50
2022-10-29T13:54:32.141Z,72.40
2022-10-29T13:56:28.690Z,72.50
2022-10-29T13:58:26.257Z,73.90
2022-10-29T14:00:18.858Z,74.10
2022-10-29T14:02:19.935Z,73.50
2022-10-29T14:04:20.421Z,73.20
2022-10-29T14:06:15.700Z,73.20
2022-10-29T14:08:12.189Z,74.30
2022-10-29T14:10:07.447Z,73.80
2022-10-29T14:12:01.258Z,74.00
2022-10-29T14:13:53.420Z,74.80
2022-10-29T14:16:00.288Z,74.10
2022-10-29T14:17:50.709Z,74.30
2022-10-29T14:19:45.437Z,74.60
2022-10-29T14:21:38.007Z,73.80
2022-10-29T14:23:31.329Z,74.70
2022-10-29T14:25:33.330Z,74.70
2022-10-29T14:27:23.657Z,75.00
2022-10-29T14:29:15.072Z,75.30
2022-10-29T14:31:11.564Z,75.70
2022-10-29T14:33:03.031Z,76.10
2022-10-29T14:34:53.656Z,75.60
2022-10-29T14:36:46.570Z,76.60
2022-10-29T14:38:41.706Z,76.30
2022-10-29T14:40:31.899Z,76.10
2022-10-29T14:42:27.650Z,76.10
2022-10-29T14:44:20.320Z,76.40
2022-10-29T14:46:14.305Z,76.20
2022-10-29T14:48:09.587Z,76.00
2022-10-29T14:50:00.513Z,75.90
2022-10-29T14:51:53.288Z,75.80
2022-10-29T14:53:45.262Z,75.80
2022-10-29T14:55:37.094Z,76.20
2022-10-29T14:57:30.553Z,76.10
2022-10-29T14:59:25.064Z,76.10
2022-10-29T15:01:18.860Z,77.30
2022-10-29T15:03:19.583Z,76.50
2022-10-29T15:05:23.358Z,76.10
2022-10-29T15:07:21.580Z,76.10
2022-10-29T15:09:15.209Z,76.20
2022-10-29T15:11:05.649Z,76.10
2022-10-29T15:12:56.642Z,76.30
2022-10-29T15:14:48.170Z,76.00
2022-10-29T15:16:41.561Z,75.90
2022-10-29T15:18:33.721Z,75.90
2022-10-29T15:20:28.132Z,75.90
2022-10-29T15:22:29.577Z,75.90
2022-10-29T15:24:22.509Z,75.80
2022-10-29T15:26:16.787Z,75.50
2022-10-29T15:28:10.418Z,75.50
2022-10-29T15:30:00.710Z,75.60
2022-10-29T15:31:54.386Z,75.90
2022-10-29T15:33:45.447Z,76.00
2022-10-29T15:35:41.515Z,75.80
2022-10-29T15:37:41.141Z,75.80
2022-10-29T15:40:04.249Z,75.80
2022-10-29T15:41:56.854Z,76.30
2022-10-29T15:43:50.023Z,76.30
2022-10-29T15:45:55.740Z,76.30
2022-10-29T15:47:48.079Z,76.40
2022-10-29T15:49:38.615Z,76.20
2022-10-29T15:51:30.599Z,76.20
2022-10-29T15:53:21.201Z,76.00
2022-10-29T15:55:15.596Z,76.30
2022-10-29T15:57:07.627Z,76.30
2022-10-29T15:58:58.946Z,76.10
2022-10-29T16:00:49.400Z,76.20
2022-10-29T16:02:40.301Z,76.20
2022-10-29T16:04:30.974Z,76.20
2022-10-29T16:06:21.165Z,76.20
2022-10-29T16:08:20.730Z,76.10
2022-10-29T16:10:16.436Z,76.40
2022-10-29T16:12:09.369Z,76.40
2022-10-29T16:14:00.029Z,76.50
2022-10-29T16:15:50.366Z,76.40
2022-10-29T16:17:41.128Z,76.50
2022-10-29T16:19:31.491Z,76.80
2022-10-29T16:21:23.805Z,76.60
2022-10-29T16:23:14.467Z,76.60
2022-10-29T16:25:05.559Z,76.80
2022-10-29T16:26:57.359Z,76.80
2022-10-29T16:28:48.136Z,77.10
2022-10-29T16:32:30.442Z,76.20
2022-10-29T16:34:23.790Z,76.20
2022-10-29T16:36:15.275Z,76.20
2022-10-29T16:38:05.619Z,76.40
2022-10-29T16:39:55.974Z,76.10
2022-10-29T16:41:46.370Z,76.30
2022-10-29T16:43:38.324Z,76.30
2022-10-29T16:45:29.747Z,76.30
2022-10-29T16:47:20.220Z,76.40
2022-10-29T16:49:10.858Z,76.70
2022-10-29T16:51:01.392Z,76.80
2022-10-29T16:52:56.921Z,76.80
2022-10-29T16:54:47.775Z,77.10
2022-10-29T16:56:38.123Z,76.90
2022-10-29T16:58:28.345Z,76.80
2022-10-29T17:00:20.759Z,76.60
2022-10-29T17:02:11.643Z,76.50
2022-10-29T17:04:02.129Z,76.30
2022-10-29T17:05:52.531Z,76.40
2022-10-29T17:07:43.166Z,76.30
2022-10-29T17:09:34.115Z,76.80
2022-10-29T17:11:24.598Z,77.60
2022-10-29T17:13:14.987Z,77.60
2022-10-29T17:15:06.489Z,77.90
2022-10-29T17:16:58.160Z,78.30
2022-10-29T17:18:48.530Z,79.00
2022-10-29T17:20:39.013Z,79.00
2022-10-29T17:22:29.245Z,79.00
2022-10-29T17:24:19.736Z,79.40
2022-10-29T17:26:10.404Z,80.00
2022-10-29T17:28:00.847Z,80.10
2022-10-29T17:29:51.717Z,80.20
2022-10-29T17:31:42.380Z,80.30
2022-10-29T17:33:34.856Z,80.00
2022-10-29T17:35:25.376Z,80.10
2022-10-29T17:37:15.812Z,79.70
2022-10-29T17:39:06.187Z,79.60
2022-10-29T17:40:56.543Z,79.40
2022-10-29T17:42:46.855Z,79.70
2022-10-29T17:44:37.569Z,79.60
2022-10-29T17:46:27.927Z,78.80
2022-10-29T17:48:23.962Z,78.20
2022-10-29T17:50:17.314Z,77.70
2022-10-29T17:52:07.774Z,77.20
2022-10-29T17:53:58.193Z,76.90
2022-10-29T17:55:48.955Z,76.80
2022-10-29T17:57:39.514Z,76.60
2022-10-29T17:59:29.818Z,76.40
2022-10-29T18:01:20.306Z,76.30
2022-10-29T18:03:11.029Z,75.80
2022-10-29T18:05:01.852Z,75.70
2022-10-29T18:06:54.639Z,75.60
2022-10-29T18:08:45.016Z,75.30
2022-10-29T18:10:35.375Z,75.00
2022-10-29T18:12:26.061Z,74.40
2022-10-29T18:14:16.712Z,74.50
2022-10-29T18:16:08.090Z,74.50
2022-10-29T18:17:59.159Z,74.50
2022-10-29T18:19:49.934Z,74.30
2022-10-29T18:21:40.739Z,74.30
2022-10-29T18:23:32.973Z,74.30
2022-10-29T18:25:23.525Z,74.00
2022-10-29T18:27:14.117Z,74.00
2022-10-29T18:29:06.738Z,74.00
2022-10-29T18:30:57.886Z,73.60
2022-10-29T18:32:49.594Z,73.60
2022-10-29T18:34:40.265Z,73.80
2022-10-29T18:36:30.780Z,73.80
2022-10-29T18:38:21.131Z,74.10
2022-10-29T18:40:13.394Z,74.10
2022-10-29T18:42:04.087Z,74.30
2022-10-29T18:43:54.752Z,74.30
2022-10-29T18:45:45.291Z,74.20
2022-10-29T18:47:35.910Z,74.40
2022-10-29T18:49:26.303Z,74.40
2022-10-29T18:51:18.322Z,75.20
2022-10-29T18:53:08.847Z,75.10
2022-10-29T18:54:59.456Z,74.90
2022-10-29T18:56:51.052Z,74.80
2022-10-29T18:58:41.712Z,74.70
2022-10-29T19:00:32.261Z,74.80
2022-10-29T19:02:22.765Z,75.00
2022-10-29T19:04:14.848Z,75.10
2022-10-29T19:06:07.220Z,75.10
2022-10-29T19:07:57.903Z,74.80
2022-10-29T19:09:48.622Z,74.50
2022-10-29T19:11:39.699Z,74.50
2022-10-29T19:13:32.026Z,74.70
2022-10-29T19:15:22.517Z,74.80
2022-10-29T19:17:12.747Z,74.60
2022-10-29T19:21:02.670Z,74.80
2022-10-29T19:22:54.347Z,74.30
2022-10-29T19:24:45.091Z,74.30
2022-10-29T19:26:36.221Z,73.90
2022-10-29T19:28:26.633Z,73.90
2022-10-29T19:30:18.469Z,73.40
2022-10-29T19:32:08.672Z,73.30
2022-10-29T19:34:01.424Z,72.90
2022-10-29T19:35:52.181Z,72.50
2022-10-29T19:37:42.950Z,72.30
2022-10-29T19:39:33.298Z,72.30
2022-10-29T19:41:24.082Z,72.20
2022-10-29T19:43:14.828Z,72.10
2022-10-29T19:45:06.288Z,72.10
2022-10-29T19:47:00.184Z,72.00
2022-10-29T19:48:52.206Z,71.70
2022-10-29T19:50:43.039Z,71.30
2022-10-29T19:52:33.742Z,71.40
2022-10-29T19:54:24.315Z,71.50
2022-10-29T19:56:16.449Z,71.50
2022-10-29T19:58:07.476Z,71.50
2022-10-29T19:59:58.069Z,71.20
2022-10-29T20:01:48.643Z,71.20
2022-10-29T20:03:40.981Z,71.40
2022-10-29T20:05:31.488Z,71.30
2022-10-29T20:07:23.749Z,71.40
2022-10-29T20:09:14.447Z,71.50
2022-10-29T20:11:06.845Z,71.50
2022-10-29T20:12:57.758Z,71.50
2022-10-29T20:14:48.038Z,72.00
2022-10-29T20:16:39.508Z,71.70
2022-10-29T20:18:32.293Z,71.60
2022-10-29T20:20:24.684Z,71.60
2022-10-29T20:22:15.002Z,71.50
2022-10-29T20:24:05.702Z,71.40
2022-10-29T20:25:56.600Z,71.90
2022-10-29T20:27:47.085Z,71.80
2022-10-29T20:29:37.737Z,72.00
2022-10-29T20:31:30.762Z,72.10
2022-10-29T20:33:22.785Z,71.90
2022-10-29T20:35:13.335Z,72.20
2022-10-29T20:37:05.236Z,72.30
2022-10-29T20:38:56.091Z,72.50
2022-10-29T20:40:50.373Z,72.50
2022-10-29T20:42:40.609Z,72.50
2022-10-29T20:44:30.938Z,72.60
2022-10-29T20:46:22.633Z,72.50
2022-10-29T20:48:13.220Z,72.70
2022-10-29T20:50:04.014Z,72.50
2022-10-29T20:51:54.579Z,72.80
2022-10-29T20:53:46.481Z,72.60
2022-10-29T20:55:38.173Z,72.60
2022-10-29T20:57:28.643Z,72.70
2022-10-29T20:59:18.939Z,73.00
2022-10-29T21:01:11.674Z,73.00
2022-10-29T21:03:02.060Z,73.10
2022-10-29T21:04:52.405Z,73.10
2022-10-29T21:06:42.632Z,73.10
2022-10-29T21:08:35.668Z,73.20
2022-10-29T21:10:27.478Z,73.20
2022-10-29T21:12:18.104Z,73.30
2022-10-29T21:14:09.900Z,73.40
2022-10-29T21:16:04.920Z,73.50
2022-10-29T21:17:55.452Z,73.60
2022-10-29T21:19:46.272Z,73.80
2022-10-29T21:21:36.793Z,73.90
2022-10-29T21:23:27.299Z,73.80
2022-10-29T21:25:18.322Z,74.00
2022-10-29T21:27:10.449Z,73.90
2022-10-29T21:29:02.135Z,73.80
2022-10-29T21:30:54.000Z,73.90
2022-10-29T21:32:44.427Z,74.00
2022-10-29T21:34:37.021Z,74.00
2022-10-29T21:36:27.810Z,74.20
2022-10-29T21:38:18.407Z,74.50
2022-10-29T21:40:10.129Z,74.60
2022-10-29T21:42:03.274Z,74.90
2022-10-29T21:43:54.991Z,75.00
2022-10-29T21:45:45.840Z,75.00
2022-10-29T21:47:36.416Z,74.80
2022-10-29T21:49:26.997Z,74.90
2022-10-29T21:51:17.766Z,75.20
2022-10-29T21:53:08.662Z,75.00
2022-10-29T21:54:58.948Z,75.10
2022-10-29T21:56:49.512Z,74.90
2022-10-29T21:58:40.911Z,75.30
2022-10-29T22:00:32.975Z,75.10
2022-10-29T22:02:23.285Z,75.20
2022-10-29T22:04:13.797Z,75.10
2022-10-29T22:06:05.528Z,75.30
2022-10-29T22:07:56.305Z,75.30
2022-10-29T22:09:47.115Z,75.40
2022-10-29T22:11:37.474Z,75.50
2022-10-29T22:13:28.172Z,75.50
2022-10-29T22:15:18.850Z,75.80
2022-10-29T22:17:10.452Z,75.70
2022-10-29T22:19:00.783Z,75.50
2022-10-29T22:20:58.374Z,75.70
2022-10-29T22:22:48.918Z,75.80
2022-10-29T22:24:39.176Z,75.90
2022-10-29T22:26:30.130Z,76.10
2022-10-29T22:28:20.672Z,76.10
2022-10-29T22:30:12.028Z,76.20
2022-10-29T22:32:02.475Z,76.30
2022-10-29T22:33:54.335Z,76.60
2022-10-29T22:35:44.643Z,76.40
2022-10-29T22:37:35.062Z,76.50
2022-10-29T22:39:25.603Z,76.70
2022-10-29T22:41:17.287Z,76.50
2022-10-29T22:43:07.857Z,76.40
2022-10-29T22:44:58.543Z,76.50
2022-10-29T22:46:48.708Z,76.60
2022-10-29T22:48:39.143Z,77.10
2022-10-29T22:50:31.092Z,77.30
2022-10-29T22:52:21.482Z,77.40
2022-10-29T22:54:11.829Z,77.20
2022-10-29T22:56:02.488Z,77.30
2022-10-29T22:57:52.958Z,77.30
2022-10-29T22:59:43.175Z,77.30
2022-10-29T23:01:38.687Z,77.30
2022-10-29T23:03:33.134Z,77.50
2022-10-29T23:05:23.538Z,77.50
2022-10-29T23:07:15.022Z,77.40
2022-10-29T23:09:05.502Z,77.40
2022-10-29T23:10:56.139Z,77.70
2022-10-29T23:12:46.756Z,77.90
2022-10-29T23:14:37.078Z,77.80
2022-10-29T23:16:29.010Z,77.90
2022-10-29T23:18:19.942Z,78.20
2022-10-29T23:20:11.031Z,77.90
2022-10-29T23:22:01.613Z,78.00
2022-10-29T23:23:54.709Z,77.80
2022-10-29T23:25:44.813Z,77.90
2022-10-29T23:27:34.997Z,78.00
2022-10-29T23:29:25.498Z,77.80
2022-10-29T23:31:17.488Z,78.10
2022-10-29T23:33:08.116Z,78.30
2022-10-29T23:34:58.693Z,78.40
2022-10-29T23:36:49.531Z,78.30
2022-10-29T23:38:40.295Z,78.30
2022-10-29T23:40:32.096Z,78.10
2022-10-29T23:42:22.444Z,78.20
2022-10-29T23:44:12.799Z,78.50
2022-10-29T23:46:03.479Z,78.70
2022-10-29T23:47:53.822Z,78.40
2022-10-29T23:49:44.575Z,78.60
2022-10-29T23:53:30.373Z,78.90
2022-10-29T23:55:20.771Z,79.30
2022-10-29T23:57:12.371Z,79.00
2022-10-29T23:59:02.846Z,79.30
